Gerlaw, Illinois
Current Conditions -  °F | °C
As of 9:15 PM on Sunday 21 Dec 2014 (Local Time) from KGBG Reporting Station
Overcast Overcast  
Wind Chill: 29°   Ceiling: 2200
Heat Index: 35°   Visibility: 10mi
Dew Point: 32°   Wind: 8mph
Humidity: 88%   Direction: 130°SE
Pressure: 29.94"   Gusts: NA
Location:  40.99°N, 90.6°W
Report Text: KGBG 220315Z AUTO 13007KT 10SM BKN022 BKN031 OVC055 02/00 A2994 RMK AO2 T00180000
Loading
Personal Weather Stations






























Interactive Weather Map New forecast layout! Learn more

10-Day Weather Forecast

Advertisements
Track Severe Weather on mobile